Terminal Aerodrome Forecast
Issued by NWS Bismarck, ND

Home | Current Version | Previous Version | Graphics & Text | Print | Product List | Glossary On
Versions: 1 2 3 4 5 6 7 8 9 10 11 12 13 14 15 16 17 18 19
000
FTUS43 KBIS 301300 AAA
TAFISN
TAF AMD
KISN 301303Z 3013/0112 13005KT 6SM -RA BR SCT009 BKN030 OVC060
      TEMPO 3013/3015 4SM SHRA BR BKN009 OVC015
     FM301500 12008KT 5SM -SHRA BR OVC012
     FM302000 10008KT 4SM SHRA VCTS SCT012 OVC025CB
     FM010200 34006KT 5SM -SHRA BR BKN008 OVC012
     FM010900 32015KT P6SM SCT010 BKN025 OVC035=

USA.gov is the U.S. government's official web portal to all federal, state and local government web resources and services.